Time;durP1;ratioP1;P1;durP2;ratioP2;P2;SDS_P1;SDS_P2;PMS_P1;PMS_P2;Temp;Humidity;BMP_temperature;BMP_pressure;BME280_temperature;BME280_humidity;BME280_pressure;Samples;Min_cycle;Max_cycle;Signal;HPM_P1;HPM_P2
2023/01/12 00:01:37;;;;;;;9.32;2.97;;;;;;;9.89;100.00;96958.94;4838392;29;20065;-82
2023/01/12 00:04:04;;;;;;;15.50;3.00;;;;;;;9.60;100.00;96982.63;4830576;29;20034;-82
2023/01/12 00:06:31;;;;;;;9.80;2.97;;;;;;;9.97;100.00;96963.78;4838240;29;20053;-82
2023/01/12 00:08:57;;;;;;;9.10;3.20;;;;;;;9.94;100.00;96959.00;4839273;29;20037;-82
2023/01/12 00:11:23;;;;;;;10.07;2.92;;;;;;;9.79;100.00;96952.53;4828955;29;20046;-85
2023/01/12 00:13:48;;;;;;;9.23;3.33;;;;;;;10.03;100.00;96913.03;4826613;29;20045;-83
2023/01/12 00:16:38;;;;;;;4.75;2.85;;;;;;;9.94;100.00;96944.09;4825554;29;20047;-83
2023/01/12 00:19:11;;;;;;;9.65;3.17;;;;;;;10.20;100.00;96947.03;4836953;29;20056;-84
2023/01/12 00:21:43;;;;;;;10.55;3.58;;;;;;;9.82;100.00;96915.34;4841311;29;20119;-82
2023/01/12 00:24:09;;;;;;;10.52;3.45;;;;;;;10.08;100.00;96871.13;4828579;29;20040;-83
2023/01/12 00:26:34;;;;;;;9.07;3.35;;;;;;;9.90;100.00;96874.06;4842145;29;20030;-83
2023/01/12 00:29:00;;;;;;;7.18;2.47;;;;;;;9.65;100.00;96877.94;4815625;29;20057;-84
2023/01/12 00:31:26;;;;;;;11.60;3.60;;;;;;;9.54;100.00;96888.28;4839432;29;20049;-84
2023/01/12 00:33:52;;;;;;;5.70;2.45;;;;;;;9.68;100.00;96891.34;4838959;29;20040;-84
2023/01/12 00:36:18;;;;;;;10.52;2.80;;;;;;;10.19;100.00;96892.22;4829938;29;20081;-83
2023/01/12 00:38:44;;;;;;;8.20;3.42;;;;;;;9.90;100.00;96863.59;4831015;29;20030;-83
2023/01/12 00:45:20;;;;;;;7.55;2.22;;;;;;;10.30;100.00;96872.94;4839390;29;20054;-81
2023/01/12 00:46:42;;;;;;;3.90;2.03;;;;;;;9.97;100.00;96848.44;4849297;29;20062;-81
2023/01/12 00:49:08;;;;;;;5.97;1.90;;;;;;;10.08;100.00;96855.41;4833641;29;20371;-81
2023/01/12 00:51:34;;;;;;;6.53;2.00;;;;;;;10.34;100.00;96866.16;4833664;29;20375;-81
2023/01/12 00:54:03;;;;;;;6.45;1.90;;;;;;;10.26;100.00;96832.53;4832330;29;20063;-82
2023/01/12 00:56:30;;;;;;;1.52;1.35;;;;;;;10.12;100.00;96843.38;4834965;29;20481;-81
2023/01/12 00:58:55;;;;;;;2.45;1.52;;;;;;;10.41;100.00;96832.69;4847599;29;20117;-81
2023/01/12 01:01:21;;;;;;;1.58;1.02;;;;;;;10.22;100.00;96798.13;4838944;29;20044;-80
2023/01/12 01:03:47;;;;;;;1.65;1.33;;;;;;;10.27;100.00;96800.03;4837140;29;20057;-81
2023/01/12 01:06:12;;;;;;;1.20;1.00;;;;;;;10.34;100.00;96799.84;4824444;29;20081;-82
2023/01/12 01:08:39;;;;;;;2.10;1.38;;;;;;;10.51;100.00;96805.75;4847916;29;20068;-81
2023/01/12 01:11:10;;;;;;;1.33;1.17;;;;;;;10.96;100.00;96832.63;4823166;29;20066;-80
2023/01/12 01:13:42;;;;;;;2.53;1.30;;;;;;;11.03;100.00;96821.13;4837211;29;20041;-81
2023/01/12 01:16:10;;;;;;;5.28;1.58;;;;;;;11.01;100.00;96829.25;4830901;29;20069;-81
2023/01/12 01:18:35;;;;;;;4.25;2.30;;;;;;;10.97;100.00;96797.47;4838206;29;20053;-80
2023/01/12 01:21:01;;;;;;;7.60;2.20;;;;;;;11.34;100.00;96792.44;4838216;29;20034;-81
2023/01/12 01:23:33;;;;;;;3.97;2.10;;;;;;;11.39;100.00;96802.94;4827499;29;20405;-81
2023/01/12 01:26:11;;;;;;;7.03;1.90;;;;;;;11.78;100.00;96799.97;4821908;29;20090;-81
2023/01/12 01:28:37;;;;;;;4.93;2.30;;;;;;;11.00;100.00;96741.06;4835013;29;20125;-81
2023/01/12 01:31:08;;;;;;;6.60;2.42;;;;;;;11.39;100.00;96755.69;4830355;29;20049;-81
2023/01/12 01:33:34;;;;;;;8.35;2.42;;;;;;;11.32;100.00;96776.94;4830989;29;20069;-80
2023/01/12 01:36:00;;;;;;;4.20;1.92;;;;;;;11.36;100.00;96761.44;4839583;29;20026;-82
2023/01/12 01:38:26;;;;;;;4.32;2.30;;;;;;;11.86;100.00;96756.63;4838024;29;20039;-81
2023/01/12 01:40:52;;;;;;;9.82;2.30;;;;;;;11.35;100.00;96702.09;4823307;29;20053;-82
2023/01/12 01:43:20;;;;;;;6.57;2.17;;;;;;;11.55;100.00;96746.81;4830725;29;20122;-80
2023/01/12 01:45:56;;;;;;;5.25;2.28;;;;;;;11.32;100.00;96726.25;4833305;29;20038;-81
2023/01/12 01:48:23;;;;;;;5.72;1.95;;;;;;;11.50;100.00;96704.00;4834015;29;20037;-81
2023/01/12 01:50:56;;;;;;;10.00;2.05;;;;;;;11.21;100.00;96739.34;4831745;29;20034;-83
2023/01/12 01:53:25;;;;;;;6.57;2.05;;;;;;;11.31;100.00;96735.16;4849511;29;20038;-81
2023/01/12 01:56:02;;;;;;;7.72;2.05;;;;;;;11.24;100.00;96712.56;4837151;29;20108;-81
2023/01/12 01:58:37;;;;;;;8.52;2.15;;;;;;;11.67;100.00;96736.06;4831967;29;20508;-82
2023/01/12 02:01:04;;;;;;;11.50;1.98;;;;;;;11.53;100.00;96692.97;4845571;29;20027;-81
2023/01/12 02:03:31;;;;;;;9.23;1.95;;;;;;;11.63;100.00;96734.25;4833448;29;20367;-81
2023/01/12 02:05:57;;;;;;;4.38;1.83;;;;;;;11.66;100.00;96750.25;4830828;29;20033;-82
2023/01/12 02:08:44;;;;;;;14.48;2.80;;;;;;;11.44;100.00;96700.56;4833004;29;20034;-80
2023/01/12 02:17:00;;;;;;;9.77;2.05;;;;;;;11.78;100.00;96723.75;4848728;29;20038;-81
2023/01/12 02:19:38;;;;;;;5.63;1.70;;;;;;;11.80;100.00;96724.31;4847469;29;20042;-81
2023/01/12 02:22:29;;;;;;;7.80;2.55;;;;;;;11.86;100.00;96731.16;4849295;29;20040;-82
2023/01/12 02:25:16;;;;;;;9.02;2.30;;;;;;;11.61;100.00;96736.34;4834339;29;20030;-82
2023/01/12 02:28:01;;;;;;;9.75;2.25;;;;;;;11.51;100.00;96737.09;4826752;29;20057;-80
2023/01/12 02:31:24;;;;;;;10.13;1.83;;;;;;;11.69;100.00;96746.34;4835184;29;20189;-80
2023/01/12 02:34:12;;;;;;;8.10;2.38;;;;;;;11.73;100.00;96749.25;4796244;29;20494;-82
2023/01/12 02:36:49;;;;;;;9.05;2.67;;;;;;;11.73;100.00;96739.50;4789823;29;20093;-82
2023/01/12 02:39:33;;;;;;;6.78;1.90;;;;;;;11.54;100.00;96761.00;4826117;29;20098;-79
2023/01/12 02:45:05;;;;;;;8.07;1.70;;;;;;;11.54;100.00;96723.44;4833283;29;20518;-81
2023/01/12 02:47:55;;;;;;;11.57;3.35;;;;;;;11.72;100.00;96751.06;4832481;29;20046;-79
2023/01/12 02:50:45;;;;;;;4.63;1.88;;;;;;;11.56;100.00;96756.28;4841298;29;20056;-80
2023/01/12 02:53:33;;;;;;;10.45;2.25;;;;;;;11.65;100.00;96751.31;4833689;29;20034;-80
2023/01/12 02:56:03;;;;;;;9.32;2.35;;;;;;;11.66;100.00;96791.53;4841033;29;20038;-81
2023/01/12 02:58:34;;;;;;;12.85;2.45;;;;;;;11.66;100.00;96765.25;4840552;29;20055;-82
2023/01/12 03:01:02;;;;;;;9.43;2.22;;;;;;;11.40;100.00;96731.00;4827528;29;20473;-80
2023/01/12 03:03:28;;;;;;;12.88;2.50;;;;;;;11.67;100.00;96788.63;4835246;29;20047;-80
2023/01/12 03:05:58;;;;;;;10.02;2.33;;;;;;;11.95;100.00;96794.53;4819447;29;20041;-90
2023/01/12 03:08:27;;;;;;;8.85;2.45;;;;;;;11.83;100.00;96775.56;4849984;29;20077;-91
2023/01/12 03:11:05;;;;;;;9.90;2.65;;;;;;;11.90;100.00;96785.81;4851212;29;20110;-89
2023/01/12 03:13:36;;;;;;;11.65;2.92;;;;;;;11.87;100.00;96805.53;4834251;29;20034;-92
2023/01/12 03:16:05;;;;;;;9.00;2.72;;;;;;;11.65;100.00;96759.19;4834102;29;20129;-91
2023/01/12 03:18:55;;;;;;;11.00;2.63;;;;;;;11.85;100.00;96794.47;4847719;29;20141;-89
2023/01/12 03:21:57;;;;;;;10.27;2.80;;;;;;;11.91;100.00;96811.88;4848184;29;20034;-90
2023/01/12 03:24:48;;;;;;;10.65;2.35;;;;;;;11.87;100.00;96842.31;4833136;29;20049;-89
2023/01/12 03:27:24;;;;;;;10.10;2.70;;;;;;;11.65;100.00;96805.72;4814137;29;20041;-88
2023/01/12 03:30:06;;;;;;;10.98;3.17;;;;;;;11.75;100.00;96824.16;4837342;29;20067;-88
2023/01/12 03:32:36;;;;;;;12.30;2.95;;;;;;;11.94;100.00;96849.97;4846862;29;20038;-91
2023/01/12 03:35:07;;;;;;;13.23;3.75;;;;;;;12.04;100.00;96817.69;4820411;29;20039;-89
2023/01/12 03:37:43;;;;;;;12.20;3.45;;;;;;;11.75;100.00;96804.97;4857279;29;20039;-89
2023/01/12 03:40:42;;;;;;;9.68;3.70;;;;;;;11.81;100.00;96844.16;4860119;29;20037;-89
2023/01/12 03:43:22;;;;;;;12.48;4.07;;;;;;;11.66;100.00;96828.31;4853393;29;20490;-87
2023/01/12 03:45:55;;;;;;;16.17;4.15;;;;;;;11.90;100.00;96859.44;4831254;29;20031;-87
2023/01/12 03:48:36;;;;;;;7.40;3.78;;;;;;;11.70;100.00;96840.69;4840865;29;20043;-90
2023/01/12 03:51:11;;;;;;;8.98;3.58;;;;;;;11.50;100.00;96846.63;4833770;29;20095;-87
2023/01/12 03:53:39;;;;;;;14.48;4.55;;;;;;;11.70;100.00;96842.53;4834621;29;20569;-87
2023/01/12 03:56:08;;;;;;;10.95;4.30;;;;;;;11.51;100.00;96853.47;4852754;29;20042;-87
2023/01/12 03:58:35;;;;;;;11.50;4.63;;;;;;;11.61;100.00;96868.50;4838016;29;20099;-89
2023/01/12 04:01:02;;;;;;;11.45;5.90;;;;;;;11.77;100.00;96908.78;4821390;29;20066;-86
2023/01/12 04:03:28;;;;;;;12.05;6.65;;;;;;;11.66;100.00;96912.41;4847051;29;20494;-89
2023/01/12 04:05:55;;;;;;;14.05;7.60;;;;;;;11.46;100.00;96918.31;4848098;29;20050;-88
2023/01/12 04:08:22;;;;;;;17.75;7.75;;;;;;;11.79;100.00;96948.78;4840750;29;20138;-87
2023/01/12 04:10:48;;;;;;;12.00;6.05;;;;;;;10.98;100.00;96901.41;4839800;29;20083;-88
2023/01/12 04:13:15;;;;;;;8.38;5.07;;;;;;;11.19;100.00;96919.19;4828558;29;20553;-90
2023/01/12 04:15:43;;;;;;;6.13;3.10;;;;;;;11.42;100.00;96925.94;4824262;29;20069;-90
2023/01/12 04:18:10;;;;;;;5.57;2.30;;;;;;;11.15;100.00;96903.13;4842688;29;20034;-87
2023/01/12 04:20:36;;;;;;;3.65;1.77;;;;;;;11.45;100.00;96928.03;4844548;29;20423;-88
2023/01/12 04:23:03;;;;;;;4.93;1.63;;;;;;;11.17;100.00;96916.00;4843351;29;20217;-88
2023/01/12 04:25:34;;;;;;;3.42;1.40;;;;;;;11.39;100.00;96944.78;4855677;29;20038;-90
2023/01/12 04:28:00;;;;;;;4.95;1.90;;;;;;;11.37;100.00;96913.53;4841260;29;20045;-88
2023/01/12 04:30:28;;;;;;;5.90;1.38;;;;;;;11.05;100.00;96929.31;4824029;29;20143;-86
2023/01/12 04:32:58;;;;;;;9.48;1.48;;;;;;;10.98;100.00;96913.75;4817743;29;20037;-86
2023/01/12 04:35:27;;;;;;;5.15;1.38;;;;;;;10.70;100.00;96920.84;4835772;29;20046;-88
2023/01/12 04:37:53;;;;;;;4.57;1.20;;;;;;;10.76;100.00;96945.31;4834102;29;20121;-86
2023/01/12 04:40:23;;;;;;;2.10;1.27;;;;;;;10.91;100.00;96934.97;4840936;29;20485;-85
2023/01/12 04:43:01;;;;;;;4.07;1.70;;;;;;;10.99;100.00;97021.13;4831351;29;20051;-86
2023/01/12 04:45:30;;;;;;;3.38;1.20;;;;;;;11.00;100.00;96988.59;4841297;29;20038;-84
2023/01/12 04:48:03;;;;;;;4.65;1.60;;;;;;;10.88;100.00;96956.47;4848494;29;20048;-85
2023/01/12 04:50:29;;;;;;;;;;;;;;;11.08;100.00;96978.69;4840511;29;20069;-86
2023/01/12 04:52:56;;;;;;;4.32;1.40;;;;;;;10.57;100.00;96967.44;4829828;29;19917;-86
2023/01/12 04:55:22;;;;;;;3.50;1.08;;;;;;;10.94;100.00;96986.94;4829937;29;20044;-85
2023/01/12 04:57:48;;;;;;;2.17;1.00;;;;;;;10.82;100.00;97009.94;4841942;29;20029;-85
2023/01/12 05:00:14;;;;;;;4.65;1.20;;;;;;;10.96;100.00;96994.59;4842742;29;20038;-85
2023/01/12 05:02:46;;;;;;;8.18;1.25;;;;;;;11.03;100.00;97004.91;4847180;29;20026;-85
2023/01/12 05:05:12;;;;;;;7.78;1.65;;;;;;;10.68;100.00;96984.06;4828653;29;20038;-85
2023/01/12 05:10:21;;;;;;;6.38;1.95;;;;;;;10.85;100.00;96998.94;4823701;29;20512;-86
2023/01/12 05:10:24;;;;;;;12.15;1.90;;;;;;;11.24;100.00;97048.69;4848008;29;20069;-85
2023/01/12 05:12:52;;;;;;;7.95;2.20;;;;;;;11.21;100.00;97049.19;4839845;29;20109;-88
2023/01/12 05:15:18;;;;;;;7.65;2.38;;;;;;;11.11;100.00;97076.16;4834783;29;20092;-87
2023/01/12 05:17:53;;;;;;;6.30;1.70;;;;;;;10.61;100.00;97062.19;4842679;29;20026;-86
2023/01/12 05:20:23;;;;;;;2.22;1.50;;;;;;;10.96;100.00;97063.63;4833863;29;20069;-85
2023/01/12 05:22:56;;;;;;;2.40;1.20;;;;;;;10.86;100.00;97058.28;4824779;29;20031;-86
2023/01/12 05:25:25;;;;;;;0.93;0.88;;;;;;;11.19;100.00;97072.25;4824849;29;20097;-85
2023/01/12 05:27:57;;;;;;;2.70;1.10;;;;;;;10.76;100.00;97047.66;4834463;29;20428;-88
2023/01/12 05:30:30;;;;;;;5.10;1.70;;;;;;;10.95;100.00;97072.53;4838532;29;20030;-85
2023/01/12 05:33:20;;;;;;;;;;;;;;;;;;;;;
2023/01/12 05:35:49;;;;;;;7.13;2.10;;;;;;;11.09;100.00;97069.53;4834536;29;20041;-87
2023/01/12 05:38:38;;;;;;;10.13;1.88;;;;;;;11.24;100.00;97067.09;4831810;29;20037;-85
2023/01/12 05:41:14;;;;;;;10.07;2.08;;;;;;;11.49;100.00;97120.09;4823472;29;20126;-86
2023/01/12 05:43:49;;;;;;;5.72;2.10;;;;;;;10.81;100.00;97087.09;4835087;29;20034;-86
2023/01/12 05:46:24;;;;;;;10.50;2.10;;;;;;;11.19;100.00;97134.50;4835048;29;20125;-86
2023/01/12 05:48:59;;;;;;;10.15;2.53;;;;;;;10.94;100.00;97099.81;4841091;29;20086;-84
2023/01/12 05:51:29;;;;;;;10.77;2.17;;;;;;;11.35;100.00;97122.31;4830138;29;20497;-86
2023/01/12 05:54:02;;;;;;;5.78;2.10;;;;;;;11.59;100.00;97096.56;4832053;29;20041;-86
2023/01/12 05:56:34;;;;;;;7.75;1.80;;;;;;;11.39;100.00;97112.91;4831806;29;20478;-87
2023/01/12 05:59:12;;;;;;;6.38;2.15;;;;;;;11.56;100.00;97097.06;4847771;29;20368;-86
2023/01/12 06:01:53;;;;;;;4.95;1.90;;;;;;;11.72;100.00;97150.56;4819601;29;20042;-86
2023/01/12 06:04:41;;;;;;;5.85;2.20;;;;;;;11.87;100.00;97155.16;4820520;29;20040;-86
2023/01/12 06:07:38;;;;;;;8.57;4.10;;;;;;;11.78;100.00;97131.16;4837875;29;20054;-86
2023/01/12 06:10:14;;;;;;;9.43;4.47;;;;;;;12.24;100.00;97164.19;4829184;29;20167;-85
2023/01/12 06:15:37;;;;;;;13.63;6.65;;;;;;;12.25;100.00;97166.53;4833478;29;20133;-87
2023/01/12 06:18:08;;;;;;;16.05;8.40;;;;;;;11.91;100.00;97144.94;4840663;29;20493;-87
2023/01/12 06:20:43;;;;;;;16.52;8.93;;;;;;;11.46;100.00;97113.53;4839405;29;20042;-86
2023/01/12 06:23:18;;;;;;;18.13;9.38;;;;;;;12.03;100.00;97157.94;4817344;29;20034;-86
2023/01/12 06:25:49;;;;;;;18.70;8.75;;;;;;;12.30;100.00;97172.91;4835008;29;20070;-88
2023/01/12 06:28:18;;;;;;;;;;;;;;;12.65;100.00;97198.66;4835953;29;20050;-88
2023/01/12 06:31:07;;;;;;;15.77;8.13;;;;;;;12.18;100.00;97128.34;4835712;29;20062;-87
2023/01/12 06:33:38;;;;;;;14.80;7.80;;;;;;;12.51;100.00;97189.63;4829252;29;20776;-87
2023/01/12 06:36:13;;;;;;;14.23;4.60;;;;;;;11.88;100.00;97138.34;4842229;29;20034;-88
2023/01/12 06:38:54;;;;;;;16.60;4.78;;;;;;;12.33;100.00;97181.06;4835351;29;20125;-88
2023/01/12 06:44:13;;;;;;;12.40;3.50;;;;;;;12.26;100.00;97156.81;4833903;29;20042;-84
2023/01/12 06:46:39;;;;;;;13.32;3.25;;;;;;;12.38;100.00;97175.06;4823593;29;20037;-84
2023/01/12 06:49:04;;;;;;;18.95;4.47;;;;;;;12.21;100.00;97169.94;4838624;29;20550;-85
2023/01/12 06:51:30;;;;;;;21.45;3.63;;;;;;;12.20;100.00;97176.25;4815736;29;20029;-84
2023/01/12 06:53:56;;;;;;;25.65;4.45;;;;;;;12.08;100.00;97186.91;4839657;29;20030;-84
2023/01/12 06:56:22;;;;;;;29.08;5.45;;;;;;;11.94;100.00;97181.25;4842364;29;20049;-83
2023/01/12 06:58:47;;;;;;;25.70;4.00;;;;;;;11.95;100.00;97182.81;4838137;29;20114;-88
2023/01/12 07:01:13;;;;;;;22.83;4.57;;;;;;;12.39;100.00;97187.97;4840533;29;20426;-87
2023/01/12 07:03:39;;;;;;;21.88;4.90;;;;;;;12.39;100.00;97177.44;4855724;29;20105;-85
2023/01/12 07:06:06;;;;;;;37.10;5.95;;;;;;;12.43;100.00;97175.91;4832333;29;20521;-86
2023/01/12 07:08:35;;;;;;;23.02;5.18;;;;;;;12.39;100.00;97174.00;4834445;29;20039;-86
2023/01/12 07:11:06;;;;;;;24.58;5.38;;;;;;;12.60;100.00;97219.69;4841828;29;20045;-87
2023/01/12 07:13:33;;;;;;;27.73;4.90;;;;;;;12.47;100.00;97220.91;4847805;29;20139;-88
2023/01/12 07:16:01;;;;;;;22.65;4.43;;;;;;;12.25;100.00;97194.69;4858305;29;20038;-90
2023/01/12 07:18:28;;;;;;;18.65;4.13;;;;;;;12.07;100.00;97204.53;4860769;29;20088;-90
2023/01/12 07:20:54;;;;;;;24.42;4.13;;;;;;;11.94;100.00;97186.50;4838244;29;20454;-86
2023/01/12 07:23:19;;;;;;;20.33;4.45;;;;;;;11.89;100.00;97220.63;4844390;29;20113;-89
2023/01/12 07:25:58;;;;;;;;;;;;;;;;;;;;;
2023/01/12 07:28:46;;;;;;;19.52;3.50;;;;;;;11.75;100.00;97193.94;4830320;29;20056;-84
2023/01/12 07:31:12;;;;;;;23.60;4.55;;;;;;;11.60;100.00;97186.72;4834635;29;20050;-86
2023/01/12 07:33:38;;;;;;;20.08;3.63;;;;;;;11.85;100.00;97204.56;4842958;29;20031;-86
2023/01/12 07:36:05;;;;;;;14.98;3.30;;;;;;;11.84;100.00;97203.78;4843990;29;20046;-86
2023/01/12 07:38:30;;;;;;;19.88;3.00;;;;;;;11.80;100.00;97186.91;4839168;29;20094;-86
2023/01/12 07:41:01;;;;;;;11.73;3.15;;;;;;;11.97;100.00;97218.34;4843599;29;20041;-86
2023/01/12 07:43:27;;;;;;;17.13;4.00;;;;;;;11.91;100.00;97213.28;4847283;29;20059;-88
2023/01/12 07:45:58;;;;;;;15.48;3.33;;;;;;;12.01;100.00;97200.28;4836181;29;20038;-87
2023/01/12 07:48:26;;;;;;;17.50;3.50;;;;;;;11.65;100.00;97194.63;4833654;29;20045;-81
2023/01/12 07:50:52;;;;;;;14.82;3.97;;;;;;;11.92;100.00;97233.28;4834920;29;20034;-81
2023/01/12 07:53:19;;;;;;;16.23;3.30;;;;;;;11.86;100.00;97235.06;4833174;29;20041;-88
2023/01/12 07:55:44;;;;;;;11.23;2.60;;;;;;;11.79;100.00;97222.13;4841282;29;20061;-89
2023/01/12 07:58:11;;;;;;;12.10;2.85;;;;;;;11.96;100.00;97215.97;4847028;29;20089;-90
2023/01/12 08:00:36;;;;;;;15.50;3.08;;;;;;;11.81;100.00;97204.28;4837094;29;20060;-89
2023/01/12 08:03:12;;;;;;;17.70;3.72;;;;;;;11.74;100.00;97216.81;4827925;29;20031;-88
2023/01/12 08:05:38;;;;;;;21.95;4.13;;;;;;;11.67;100.00;97203.06;4834483;29;20734;-90
2023/01/12 08:08:05;;;;;;;21.65;3.10;;;;;;;11.65;100.00;97205.16;4851137;29;20113;-90
2023/01/12 08:10:31;;;;;;;16.38;3.30;;;;;;;11.60;100.00;97205.88;4860165;29;20113;-90
2023/01/12 08:12:57;;;;;;;20.77;4.60;;;;;;;11.73;100.00;97217.84;4849220;29;20117;-90
2023/01/12 08:15:25;;;;;;;9.85;2.70;;;;;;;11.73;100.00;97215.22;4846528;29;20077;-89
2023/01/12 08:18:02;;;;;;;14.93;2.90;;;;;;;11.47;100.00;97193.94;4858941;29;20048;-89
2023/01/12 08:20:32;;;;;;;14.48;2.97;;;;;;;11.73;100.00;97207.31;4847764;29;20401;-89
2023/01/12 08:23:03;;;;;;;23.55;3.70;;;;;;;11.63;100.00;97196.72;4841349;29;20091;-90
2023/01/12 08:25:34;;;;;;;14.70;2.80;;;;;;;11.46;100.00;97179.19;4855135;29;20035;-90
2023/01/12 08:28:06;;;;;;;15.75;3.35;;;;;;;11.25;100.00;97178.97;4835568;29;20038;-90
2023/01/12 08:30:32;;;;;;;25.13;3.53;;;;;;;11.49;100.00;97189.22;4837445;29;20234;-87
2023/01/12 08:33:00;;;;;;;16.00;3.70;;;;;;;11.45;100.00;97214.41;4828982;29;20102;-87
2023/01/12 08:35:31;;;;;;;13.35;3.20;;;;;;;11.35;100.00;97180.13;4836174;29;20489;-88
2023/01/12 08:37:58;;;;;;;17.83;3.55;;;;;;;11.55;100.00;97198.72;4849517;29;20041;-85
2023/01/12 08:41:31;;;;;;;18.15;3.13;;;;;;;11.46;100.00;97192.34;4827731;29;20045;-86
2023/01/12 08:43:10;;;;;;;18.75;4.00;;;;;;;11.58;100.00;97176.44;4833419;29;20022;-86
2023/01/12 08:45:35;;;;;;;15.00;3.28;;;;;;;11.89;100.00;97199.59;4835214;29;20046;-85
2023/01/12 08:48:04;;;;;;;13.13;2.58;;;;;;;11.94;100.00;97197.81;4838779;29;20034;-86
2023/01/12 08:50:29;;;;;;;12.75;3.10;;;;;;;11.71;100.00;97162.09;4834659;29;20031;-86
2023/01/12 08:52:55;;;;;;;14.43;3.53;;;;;;;11.60;100.00;97149.94;4834458;29;20400;-84
2023/01/12 08:55:20;;;;;;;20.00;3.10;;;;;;;11.44;100.00;97152.38;4834064;29;20790;-87
2023/01/12 08:57:46;;;;;;;20.83;3.60;;;;;;;11.71;100.00;97175.25;4834752;29;20030;-85
2023/01/12 09:00:12;;;;;;;21.60;3.88;;;;;;;11.67;100.00;97176.78;4838745;29;20057;-86
2023/01/12 09:02:38;;;;;;;17.23;4.22;;;;;;;11.70;100.00;97160.53;4840288;29;20420;-87
2023/01/12 09:05:04;;;;;;;16.30;4.35;;;;;;;11.68;100.00;97178.38;4831991;29;20038;-88
2023/01/12 09:07:30;;;;;;;17.80;4.30;;;;;;;11.60;100.00;97155.19;4837367;29;20046;-87
2023/01/12 09:09:56;;;;;;;16.88;4.55;;;;;;;11.72;100.00;97161.06;4846464;29;20071;-87
2023/01/12 09:12:21;;;;;;;12.82;3.78;;;;;;;11.64;100.00;97138.66;4845996;29;20030;-88
2023/01/12 09:14:48;;;;;;;21.45;4.82;;;;;;;12.11;100.00;97166.16;4831092;29;20450;-88
2023/01/12 09:17:13;;;;;;;12.15;3.67;;;;;;;11.86;100.00;97170.16;4831770;29;20071;-86
2023/01/12 09:19:42;;;;;;;19.90;4.90;;;;;;;11.79;100.00;97153.78;4853854;29;20034;-86
2023/01/12 09:22:08;;;;;;;17.05;4.20;;;;;;;11.93;100.00;97156.81;4839972;29;20057;-88
2023/01/12 09:24:34;;;;;;;19.02;4.22;;;;;;;12.14;100.00;97181.44;4857521;29;20038;-87
2023/01/12 09:27:00;;;;;;;14.40;4.13;;;;;;;12.03;100.00;97164.00;4833347;29;20041;-88
2023/01/12 09:29:25;;;;;;;12.88;3.85;;;;;;;12.06;100.00;97162.69;4827122;29;20030;-90
2023/01/12 09:31:51;;;;;;;13.93;3.65;;;;;;;12.00;100.00;97165.25;4829855;29;20046;-89
2023/01/12 09:34:16;;;;;;;13.93;3.55;;;;;;;11.91;100.00;97144.94;4843669;29;20030;-88
2023/01/12 09:36:43;;;;;;;14.77;3.72;;;;;;;11.74;100.00;97143.22;4840861;29;20030;-85
2023/01/12 09:39:15;;;;;;;13.93;3.17;;;;;;;11.95;100.00;97146.03;4834478;29;20065;-84
2023/01/12 09:47:49;;;;;;;11.23;3.20;;;;;;;12.53;100.00;97175.16;4848054;29;20026;-92
2023/01/12 09:50:38;;;;;;;8.55;2.72;;;;;;;12.50;100.00;97159.91;4846017;29;20050;-89
2023/01/12 09:53:21;;;;;;;8.38;2.70;;;;;;;12.69;100.00;97162.88;4847247;29;20046;-91
2023/01/12 09:55:51;;;;;;;9.75;2.50;;;;;;;12.83;100.00;97154.56;4835985;29;20045;-90
2023/01/12 09:58:27;;;;;;;9.63;2.60;;;;;;;12.70;100.00;97140.78;4836505;29;20135;-90
2023/01/12 10:00:58;;;;;;;7.55;2.25;;;;;;;12.46;100.00;97140.38;4845134;29;20095;-90
2023/01/12 10:03:29;;;;;;;9.15;2.50;;;;;;;12.67;100.00;97148.38;4843720;29;20045;-90
2023/01/12 10:05:59;;;;;;;3.90;2.53;;;;;;;12.31;100.00;97117.41;4831307;29;20489;-85
2023/01/12 10:08:34;;;;;;;5.55;2.60;;;;;;;12.46;100.00;97113.28;4831299;29;20049;-87
2023/01/12 10:11:12;;;;;;;7.32;2.70;;;;;;;12.69;100.00;97141.06;4833810;29;20506;-88
2023/01/12 10:13:59;;;;;;;10.18;3.80;;;;;;;12.58;100.00;97127.06;4830700;29;20117;-85
2023/01/12 10:16:46;;;;;;;7.35;2.85;;;;;;;12.42;100.00;97121.69;4829601;29;20042;-86
2023/01/12 10:19:43;;;;;;;6.18;2.20;;;;;;;12.29;100.00;97108.97;4823994;29;20446;-88
2023/01/12 10:22:35;;;;;;;7.63;1.95;;;;;;;12.37;100.00;97120.84;4846633;29;20053;-86
2023/01/12 10:25:17;;;;;;;4.78;1.80;;;;;;;12.11;100.00;97092.53;4833553;29;20044;-85
2023/01/12 10:27:45;;;;;;;11.15;2.95;;;;;;;12.54;100.00;97084.66;4833849;29;20034;-84
2023/01/12 10:30:17;;;;;;;6.05;2.42;;;;;;;12.24;100.00;97064.22;4831664;29;20049;-82
2023/01/12 10:32:43;;;;;;;5.05;2.00;;;;;;;12.28;100.00;97057.41;4833609;29;20513;-83
2023/01/12 10:35:15;;;;;;;3.22;1.75;;;;;;;12.35;100.00;97086.13;4827108;29;20131;-86
2023/01/12 10:37:49;;;;;;;5.88;2.15;;;;;;;12.38;100.00;97075.09;4832943;29;20396;-87
2023/01/12 10:40:38;;;;;;;5.95;2.55;;;;;;;12.64;100.00;97091.00;4843734;29;20046;-87
2023/01/12 10:43:18;;;;;;;6.68;3.40;;;;;;;12.59;100.00;97085.72;4837781;29;20066;-86
2023/01/12 10:46:04;;;;;;;8.23;3.30;;;;;;;12.59;100.00;97054.13;4838400;29;20109;-86
2023/01/12 10:48:31;;;;;;;8.13;3.58;;;;;;;12.83;100.00;97072.94;4840302;29;20095;-85
2023/01/12 10:51:02;;;;;;;4.38;2.80;;;;;;;12.99;100.00;97074.56;4848452;29;20065;-89
2023/01/12 10:53:51;;;;;;;8.82;3.05;;;;;;;12.83;100.00;97049.25;4832762;29;20087;-89
2023/01/12 10:56:23;;;;;;;5.93;2.15;;;;;;;12.80;100.00;97028.69;4831493;29;20138;-86
2023/01/12 10:58:56;;;;;;;4.03;1.90;;;;;;;12.88;100.00;97054.50;4850311;29;20094;-88
2023/01/12 11:01:22;;;;;;;3.45;2.33;;;;;;;12.91;100.00;97056.63;4842459;29;20094;-86
2023/01/12 11:03:48;;;;;;;3.83;1.48;;;;;;;13.08;100.00;97055.63;4852636;29;20034;-86
2023/01/12 11:06:25;;;;;;;3.03;1.75;;;;;;;12.92;100.00;97052.94;4842339;29;20046;-86
2023/01/12 11:08:50;;;;;;;2.65;1.50;;;;;;;12.90;100.00;97039.25;4852196;29;20502;-86
2023/01/12 11:11:28;;;;;;;3.63;1.50;;;;;;;13.07;100.00;97039.03;4842243;29;20053;-87
2023/01/12 11:13:57;;;;;;;3.92;1.88;;;;;;;13.05;100.00;97032.44;4830273;29;20041;-85
2023/01/12 11:16:33;;;;;;;3.72;1.70;;;;;;;13.15;100.00;97024.53;4835556;29;20050;-87
2023/01/12 11:19:09;;;;;;;7.95;2.17;;;;;;;13.32;100.00;97013.78;4847809;29;20101;-88
2023/01/12 11:21:38;;;;;;;3.33;1.92;;;;;;;13.06;100.00;96995.28;4847375;29;21910;-86
2023/01/12 11:24:12;;;;;;;2.40;1.65;;;;;;;12.69;100.00;96976.00;4851824;29;20033;-86
2023/01/12 11:26:47;;;;;;;4.88;2.00;;;;;;;13.15;100.00;97008.75;4830747;29;20045;-84
2023/01/12 11:29:25;;;;;;;3.05;1.80;;;;;;;13.45;100.00;97001.97;4845422;29;20030;-89
2023/01/12 11:31:55;;;;;;;3.95;1.80;;;;;;;13.12;100.00;96998.72;4837028;29;20037;-87
2023/01/12 11:34:28;;;;;;;6.35;1.67;;;;;;;13.08;100.00;96982.69;4837271;29;20018;-87
2023/01/12 11:37:04;;;;;;;4.17;2.13;;;;;;;13.36;100.00;96992.94;4835880;29;20477;-88
2023/01/12 11:39:30;;;;;;;6.32;1.92;;;;;;;13.02;100.00;96972.41;4838164;29;20361;-88
2023/01/12 11:45:12;;;;;;;3.22;1.80;;;;;;;13.39;100.00;96974.00;4836590;29;20058;-87
2023/01/12 11:47:48;;;;;;;5.20;1.90;;;;;;;13.24;100.00;96970.31;4848770;29;20075;-86
2023/01/12 11:50:23;;;;;;;3.33;1.92;;;;;;;13.25;100.00;96958.72;4844174;29;20042;-88
2023/01/12 11:52:50;;;;;;;5.78;1.88;;;;;;;13.52;100.00;96949.00;4848079;29;20404;-87
2023/01/12 11:55:40;;;;;;;5.00;1.73;;;;;;;13.28;100.00;96970.59;4836669;29;20045;-88
2023/01/12 11:58:30;;;;;;;8.55;2.45;;;;;;;13.40;100.00;96954.50;4845477;29;20034;-86
2023/01/12 12:01:06;;;;;;;5.93;2.05;;;;;;;13.12;100.00;96967.13;4836113;29;20030;-87
2023/01/12 12:03:54;;;;;;;6.45;2.03;;;;;;;13.50;100.00;96970.31;4847737;29;20034;-87
2023/01/12 12:06:48;;;;;;;2.33;1.83;;;;;;;13.60;100.00;96960.84;4836891;29;20129;-87
2023/01/12 12:09:31;;;;;;;4.90;2.25;;;;;;;13.55;100.00;96972.19;4835172;29;20062;-87
2023/01/12 12:11:59;;;;;;;;;;;;;;;13.77;100.00;96958.72;4834782;29;20034;-88
2023/01/12 12:14:34;;;;;;;11.32;2.83;;;;;;;13.93;100.00;96961.31;4832852;29;19955;-87